Time;durP1;ratioP1;P1;durP2;ratioP2;P2;SDS_P1;SDS_P2;PMS_P1;PMS_P2;Temp;Humidity;BMP_temperature;BMP_pressure;BME280_temperature;BME280_humidity;BME280_pressure;Samples;Min_cycle;Max_cycle;Signal;HPM_P1;HPM_P2
2023/03/16 00:01:48;;;;;;;8.70;2.98;;;;;;;0.41;64.35;99667.34;1695448;84;21085;-69
2023/03/16 00:04:15;;;;;;;7.28;2.67;;;;;;;0.44;64.38;99672.45;1700555;82;21019;-74
2023/03/16 00:06:43;;;;;;;6.12;2.83;;;;;;;0.48;64.38;99672.00;1679966;83;21046;-73
2023/03/16 00:09:10;;;;;;;8.20;2.70;;;;;;;0.49;64.48;99672.44;1697208;82;20946;-71
2023/03/16 00:11:38;;;;;;;5.78;2.42;;;;;;;0.50;64.45;99674.98;1712266;82;20998;-73
2023/03/16 00:14:05;;;;;;;7.97;3.42;;;;;;;0.48;64.43;99679.30;1736533;81;21046;-72
2023/03/16 00:16:31;;;;;;;5.15;2.50;;;;;;;0.42;64.36;99684.45;1699072;83;21025;-70
2023/03/16 00:18:58;;;;;;;6.42;2.37;;;;;;;0.35;64.45;99677.67;1734006;80;21041;-68
2023/03/16 00:21:25;;;;;;;9.18;3.37;;;;;;;0.30;64.49;99684.11;1739331;80;21296;-64
2023/03/16 00:23:52;;;;;;;8.03;4.40;;;;;;;0.27;64.58;99685.41;1749586;80;21160;-70
2023/03/16 00:26:18;;;;;;;10.93;3.70;;;;;;;0.26;64.69;99690.58;1749634;80;20996;-63
2023/03/16 00:28:45;;;;;;;10.45;5.08;;;;;;;0.21;64.94;99688.87;1744634;80;21512;-64
2023/03/16 00:31:14;;;;;;;6.10;3.10;;;;;;;0.28;64.96;99684.97;1752535;80;21584;-73
2023/03/16 00:33:41;;;;;;;6.47;4.65;;;;;;;0.33;65.14;99689.66;1753808;80;21072;-64
2023/03/16 00:36:10;;;;;;;8.25;3.35;;;;;;;0.37;65.17;99679.80;1729856;81;21062;-72
2023/03/16 00:38:44;;;;;;;6.05;2.77;;;;;;;0.36;65.12;99689.63;1729426;81;21117;-68
2023/03/16 00:41:08;;;;;;;7.00;2.77;;;;;;;0.36;65.21;99684.50;1721818;81;21013;-73
2023/03/16 00:43:42;;;;;;;6.65;2.98;;;;;;;0.43;65.34;99691.31;1727961;81;21426;-73
2023/03/16 00:46:13;;;;;;;7.35;2.83;;;;;;;0.47;65.37;99690.41;1727363;81;21042;-73
2023/03/16 00:48:43;;;;;;;9.00;2.62;;;;;;;0.50;65.35;99691.67;1730984;81;21577;-65
2023/03/16 00:51:15;;;;;;;6.58;2.67;;;;;;;0.51;65.34;99688.70;1731702;81;21011;-71
2023/03/16 00:53:44;;;;;;;7.08;2.72;;;;;;;0.49;65.38;99691.27;1730529;81;21572;-72
2023/03/16 00:56:12;;;;;;;7.35;2.83;;;;;;;0.45;65.36;99696.02;1730613;81;21002;-65
2023/03/16 00:58:41;;;;;;;5.65;2.55;;;;;;;0.44;65.53;99700.72;1731457;81;20967;-71
2023/03/16 01:01:13;;;;;;;5.58;2.67;;;;;;;0.43;65.67;99688.75;1733968;81;22225;-73
2023/03/16 01:03:40;;;;;;;4.35;2.02;;;;;;;0.43;65.57;99692.59;1728404;81;21054;-71
2023/03/16 01:06:11;;;;;;;4.92;2.52;;;;;;;0.40;65.69;99693.91;1730216;81;21031;-72
2023/03/16 01:08:39;;;;;;;5.37;2.77;;;;;;;0.39;65.71;99693.47;1732026;81;21114;-63
2023/03/16 01:11:15;;;;;;;4.75;2.20;;;;;;;0.38;65.79;99690.48;1726363;81;20984;-71
2023/03/16 01:13:42;;;;;;;8.65;2.55;;;;;;;0.39;65.85;99692.18;1728678;81;21150;-73
2023/03/16 01:16:09;;;;;;;;;;;;;;;0.38;65.93;99699.48;1734589;81;21090;-73
2023/03/16 01:18:36;;;;;;;6.25;2.42;;;;;;;0.34;65.95;99693.52;1730662;81;20283;-73
2023/03/16 01:21:06;;;;;;;7.65;2.65;;;;;;;0.29;65.82;99694.41;1732647;81;21601;-73
2023/03/16 01:23:34;;;;;;;6.87;2.58;;;;;;;0.27;66.01;99698.25;1719755;81;20964;-71
2023/03/16 01:26:01;;;;;;;6.58;3.08;;;;;;;0.26;66.08;99700.84;1719050;82;20990;-74
2023/03/16 01:28:31;;;;;;;10.68;3.35;;;;;;;0.26;66.17;99699.13;1719374;82;20975;-72
2023/03/16 01:31:08;;;;;;;7.37;2.52;;;;;;;0.26;66.17;99705.98;1724140;81;20967;-73
2023/03/16 01:33:35;;;;;;;7.03;2.60;;;;;;;0.29;66.34;99710.66;1727015;82;21033;-71
2023/03/16 01:36:11;;;;;;;8.68;3.00;;;;;;;0.37;66.35;99708.05;1720462;82;21700;-70
2023/03/16 01:38:39;;;;;;;10.00;2.95;;;;;;;0.44;66.48;99710.98;1725489;82;21028;-73
2023/03/16 01:41:06;;;;;;;5.42;2.20;;;;;;;0.56;66.62;99703.22;1720901;82;20972;-66
2023/03/16 01:43:36;;;;;;;;;;;;;;;0.66;66.69;99709.98;1724602;81;21010;-71
2023/03/16 01:46:13;;;;;;;7.95;2.80;;;;;;;0.76;66.73;99702.22;1720985;82;20109;-67
2023/03/16 01:49:00;;;;;;;8.65;3.00;;;;;;;0.78;66.62;99712.03;1719678;82;21141;-73
2023/03/16 01:51:51;;;;;;;6.37;3.00;;;;;;;0.86;66.73;99716.69;1720112;82;21034;-72
2023/03/16 01:54:31;;;;;;;11.18;2.77;;;;;;;0.92;66.82;99714.06;1716893;82;20932;-72
2023/03/16 01:57:06;;;;;;;10.20;3.40;;;;;;;0.98;66.85;99706.33;1728735;82;21006;-72
2023/03/16 01:59:41;;;;;;;8.33;3.02;;;;;;;1.07;66.91;99710.09;1725905;82;20967;-66
2023/03/16 02:02:10;;;;;;;5.72;2.87;;;;;;;1.17;66.99;99704.85;1717458;82;20964;-72
2023/03/16 02:05:06;;;;;;;6.75;3.00;;;;;;;1.23;67.02;99708.65;1725334;82;21003;-73
2023/03/16 02:07:38;;;;;;;5.90;2.62;;;;;;;1.23;66.94;99715.08;1722960;81;21047;-72
2023/03/16 02:10:07;;;;;;;7.17;2.95;;;;;;;1.20;66.94;99711.25;1694136;84;21545;-68
2023/03/16 02:12:34;;;;;;;7.03;2.62;;;;;;;1.17;66.99;99711.28;1685280;83;21058;-73
2023/03/16 02:15:00;;;;;;;8.97;2.43;;;;;;;1.11;67.05;99713.04;1725442;82;20964;-66
2023/03/16 02:17:30;;;;;;;6.10;2.80;;;;;;;1.07;67.11;99713.95;1723777;82;21046;-73
2023/03/16 02:20:34;;;;;;;7.92;2.92;;;;;;;1.01;67.18;99714.01;1722956;82;21588;-66
2023/03/16 02:23:05;;;;;;;4.35;2.50;;;;;;;0.97;67.25;99718.73;1733875;80;21165;-72
2023/03/16 02:25:48;;;;;;;10.75;2.92;;;;;;;0.91;67.31;99714.94;1734230;80;20986;-68
2023/03/16 02:29:03;;;;;;;8.85;3.55;;;;;;;0.88;67.40;99712.39;1728464;81;20973;-72
2023/03/16 02:31:30;;;;;;;8.25;2.75;;;;;;;0.83;67.41;99712.42;1738513;80;21540;-72
2023/03/16 02:33:59;;;;;;;5.75;3.27;;;;;;;0.82;67.53;99708.59;1697770;84;21042;-75
2023/03/16 02:36:27;;;;;;;5.17;2.85;;;;;;;0.79;67.50;99707.34;1737627;81;21005;-72
2023/03/16 02:38:54;;;;;;;8.25;2.70;;;;;;;0.75;67.50;99703.91;1728664;80;21093;-75
2023/03/16 02:41:21;;;;;;;7.65;2.85;;;;;;;0.71;67.48;99705.26;1734160;80;20985;-66
2023/03/16 02:44:05;;;;;;;6.62;3.47;;;;;;;0.66;67.45;99707.41;1699448;84;21031;-74
2023/03/16 02:46:34;;;;;;;12.05;4.53;;;;;;;0.59;67.48;99707.05;1716197;81;21586;-65
2023/03/16 02:49:33;;;;;;;8.40;4.47;;;;;;;0.57;67.73;99712.63;1729671;81;21052;-75
2023/03/16 02:51:59;;;;;;;9.65;3.80;;;;;;;0.63;67.83;99714.30;1697388;82;21099;-65
2023/03/16 02:54:26;;;;;;;8.08;3.60;;;;;;;0.70;67.88;99711.23;1671190;84;20989;-73
2023/03/16 02:56:52;;;;;;;9.43;3.77;;;;;;;0.79;67.98;99717.62;1702066;81;21080;-73
2023/03/16 02:59:19;;;;;;;6.75;2.77;;;;;;;0.86;68.00;99712.83;1703236;81;22149;-73
2023/03/16 03:01:46;;;;;;;6.30;3.03;;;;;;;0.92;67.98;99709.36;1703592;81;21588;-74
2023/03/16 03:04:13;;;;;;;9.75;4.35;;;;;;;0.97;68.07;99705.88;1640481;85;21500;-74
2023/03/16 03:06:40;;;;;;;7.60;3.08;;;;;;;1.04;68.04;99701.56;1698253;81;21081;-71
2023/03/16 03:09:10;;;;;;;5.67;2.87;;;;;;;1.03;68.00;99704.54;1700770;81;21112;-74
2023/03/16 03:11:37;;;;;;;6.28;3.33;;;;;;;0.99;68.04;99706.73;1703744;82;21526;-75
2023/03/16 03:14:05;;;;;;;8.55;4.00;;;;;;;0.96;68.06;99702.91;1703723;82;21028;-75
2023/03/16 03:16:31;;;;;;;11.43;4.42;;;;;;;0.93;68.16;99702.94;1668164;84;21554;-73
2023/03/16 03:18:58;;;;;;;5.28;3.90;;;;;;;0.93;68.33;99714.50;1706059;81;21536;-65
2023/03/16 03:21:25;;;;;;;9.23;4.10;;;;;;;0.95;68.39;99717.89;1654354;85;21049;-75
2023/03/16 03:23:52;;;;;;;8.05;3.77;;;;;;;0.98;68.50;99714.03;1701727;82;21093;-74
2023/03/16 03:26:20;;;;;;;4.90;3.02;;;;;;;1.02;68.58;99710.56;1697170;83;21031;-75
2023/03/16 03:28:47;;;;;;;10.93;3.47;;;;;;;1.10;68.67;99704.92;1690827;83;21038;-74
2023/03/16 03:31:17;;;;;;;7.85;3.02;;;;;;;1.16;68.54;99708.30;1699197;83;21002;-74
2023/03/16 03:33:44;;;;;;;8.40;3.52;;;;;;;1.21;68.72;99706.55;1691848;83;21368;-66
2023/03/16 03:36:11;;;;;;;;;;;;;;;1.28;68.70;99704.31;1701277;83;20995;-73
2023/03/16 03:38:38;;;;;;;7.15;2.95;;;;;;;1.33;68.79;99708.55;1697068;83;20474;-71
2023/03/16 03:41:08;;;;;;;12.13;4.17;;;;;;;1.34;68.75;99706.83;1695162;83;21481;-75
2023/03/16 03:43:35;;;;;;;5.17;2.87;;;;;;;1.36;68.78;99714.10;1691275;83;21042;-66
2023/03/16 03:46:02;;;;;;;7.35;3.02;;;;;;;1.39;68.81;99712.78;1692694;83;20986;-75
2023/03/16 03:48:29;;;;;;;;;;;;;;;1.37;68.80;99710.65;1693885;83;21066;-69
2023/03/16 03:50:56;;;;;;;6.55;3.15;;;;;;;1.39;68.94;99717.92;1698126;83;20575;-70
2023/03/16 03:53:22;;;;;;;12.75;3.58;;;;;;;1.42;68.99;99714.03;1693249;83;21505;-69
2023/03/16 03:55:49;;;;;;;12.28;3.45;;;;;;;1.44;68.98;99710.17;1696647;83;21645;-71
2023/03/16 03:58:16;;;;;;;10.03;3.60;;;;;;;1.46;69.05;99717.02;1707405;82;21556;-68
2023/03/16 04:00:44;;;;;;;7.72;3.20;;;;;;;1.48;69.01;99713.97;1709468;82;20983;-74
2023/03/16 04:03:11;;;;;;;11.83;3.83;;;;;;;1.48;69.04;99712.68;1693210;82;21506;-73
2023/03/16 04:05:38;;;;;;;11.55;3.50;;;;;;;1.45;69.01;99714.00;1694561;83;21014;-74
2023/03/16 04:08:05;;;;;;;9.13;3.08;;;;;;;1.41;69.02;99713.63;1694722;83;21017;-74
2023/03/16 04:10:32;;;;;;;10.55;3.30;;;;;;;1.35;68.98;99708.55;1697684;83;20930;-69
2023/03/16 04:13:00;;;;;;;9.40;3.70;;;;;;;1.30;69.07;99707.73;1696124;83;21017;-60
2023/03/16 04:15:26;;;;;;;10.10;2.85;;;;;;;1.26;69.15;99711.19;1695492;83;21296;-74
2023/03/16 04:17:53;;;;;;;7.05;3.50;;;;;;;1.21;69.13;99705.27;1692255;82;21120;-64
2023/03/16 04:20:22;;;;;;;9.40;3.43;;;;;;;1.14;69.13;99703.59;1695471;83;21008;-65
2023/03/16 04:22:49;;;;;;;12.80;3.72;;;;;;;1.06;69.17;99704.51;1701374;81;20990;-70
2023/03/16 04:25:17;;;;;;;7.80;4.08;;;;;;;1.00;69.22;99707.14;1713412;82;22273;-71
2023/03/16 04:27:48;;;;;;;10.08;3.55;;;;;;;0.96;69.27;99704.63;1730405;81;20999;-61
2023/03/16 04:30:15;;;;;;;11.63;3.58;;;;;;;0.90;69.34;99705.53;1731470;81;21071;-74
2023/03/16 04:32:42;;;;;;;6.70;3.50;;;;;;;0.89;69.51;99703.81;1730042;81;20966;-74
2023/03/16 04:35:10;;;;;;;8.83;3.45;;;;;;;0.91;69.50;99707.23;1734255;81;20989;-72
2023/03/16 04:37:37;;;;;;;9.78;3.50;;;;;;;0.91;69.57;99701.23;1726626;81;21085;-74
2023/03/16 04:40:10;;;;;;;8.80;3.33;;;;;;;0.94;69.69;99712.34;1727986;81;21164;-68
2023/03/16 04:42:34;;;;;;;10.60;5.00;;;;;;;0.94;69.52;99706.35;1710783;83;20998;-72
2023/03/16 04:45:05;;;;;;;24.52;13.78;;;;;;;0.88;69.49;99699.55;1690031;83;21140;-74
2023/03/16 04:47:32;;;;;;;15.70;6.78;;;;;;;0.86;69.64;99696.13;1750826;80;21698;-69
2023/03/16 04:50:01;;;;;;;14.05;5.28;;;;;;;0.86;69.69;99700.83;1751407;80;21096;-72
2023/03/16 04:52:29;;;;;;;10.38;3.58;;;;;;;0.84;69.75;99696.56;1728411;81;20975;-75
2023/03/16 04:54:55;;;;;;;;;;;;;;;0.82;69.83;99699.60;1733209;81;21073;-66
2023/03/16 04:57:23;;;;;;;11.67;3.77;;;;;;;0.82;70.00;99694.46;1728449;81;20123;-73
2023/03/16 04:59:49;;;;;;;;;;;;;;;0.86;70.07;99706.41;1734934;81;21011;-73
2023/03/16 05:02:18;;;;;;;14.53;3.17;;;;;;;0.91;70.32;99704.66;1729851;81;20194;-71
2023/03/16 05:04:46;;;;;;;9.68;3.00;;;;;;;0.94;70.21;99703.34;1730098;81;21627;-74
2023/03/16 05:07:15;;;;;;;13.60;3.98;;;;;;;0.99;70.32;99695.16;1719241;81;21038;-70
2023/03/16 05:09:42;;;;;;;12.60;3.85;;;;;;;1.07;70.29;99699.80;1728960;81;21019;-75
2023/03/16 05:12:09;;;;;;;6.92;3.30;;;;;;;1.17;70.32;99707.42;1729074;81;21463;-71
2023/03/16 05:14:38;;;;;;;9.95;3.27;;;;;;;1.22;70.37;99700.53;1687542;83;21050;-72
2023/03/16 05:17:05;;;;;;;10.43;3.77;;;;;;;1.28;70.40;99699.17;1727305;81;20971;-66
2023/03/16 05:19:32;;;;;;;10.18;3.72;;;;;;;1.35;70.35;99704.69;1731541;81;21027;-71
2023/03/16 05:22:01;;;;;;;15.63;3.87;;;;;;;1.41;70.48;99699.48;1733536;81;21090;-76
2023/03/16 05:24:27;;;;;;;6.97;2.98;;;;;;;1.46;70.48;99706.72;1732040;82;21110;-72
2023/03/16 05:26:54;;;;;;;11.47;3.63;;;;;;;1.53;70.51;99700.62;1726775;82;21117;-70
2023/03/16 05:29:20;;;;;;;14.87;4.85;;;;;;;1.60;70.56;99708.27;1729170;82;21011;-74
2023/03/16 05:31:49;;;;;;;13.80;6.37;;;;;;;1.68;70.69;99706.46;1729695;82;21041;-69
2023/03/16 05:34:22;;;;;;;18.62;7.08;;;;;;;1.78;70.64;99708.07;1726487;82;21041;-66
2023/03/16 05:36:49;;;;;;;19.52;7.80;;;;;;;1.88;70.73;99710.97;1723480;82;21054;-70
2023/03/16 05:39:15;;;;;;;16.95;5.85;;;;;;;1.99;70.69;99712.97;1713689;82;21532;-70
2023/03/16 05:41:42;;;;;;;12.30;3.75;;;;;;;2.12;70.86;99720.53;1724257;82;21019;-69
2023/03/16 05:44:10;;;;;;;9.60;4.08;;;;;;;2.24;70.89;99712.22;1703088;84;21089;-70
2023/03/16 05:46:37;;;;;;;8.50;3.83;;;;;;;2.38;70.86;99728.78;1741891;81;21054;-68
2023/03/16 05:49:04;;;;;;;14.40;4.33;;;;;;;2.50;70.98;99717.44;1741637;82;21509;-70
2023/03/16 05:51:34;;;;;;;12.50;4.35;;;;;;;2.58;70.69;99717.34;1743446;81;21022;-69
2023/03/16 05:54:01;;;;;;;9.23;3.45;;;;;;;2.62;70.80;99724.13;1722883;82;20987;-69
2023/03/16 05:56:28;;;;;;;10.45;3.55;;;;;;;2.69;70.86;99725.77;1725050;82;21062;-70
2023/03/16 05:58:56;;;;;;;10.93;3.80;;;;;;;2.70;70.81;99723.58;1693655;82;21537;-67
2023/03/16 06:01:24;;;;;;;10.43;3.83;;;;;;;2.78;70.87;99735.92;1721395;82;21034;-70
2023/03/16 06:03:51;;;;;;;11.85;4.08;;;;;;;2.82;70.93;99729.83;1722930;82;20952;-67
2023/03/16 06:06:21;;;;;;;15.70;3.47;;;;;;;2.88;70.94;99733.59;1723562;82;21522;-69
2023/03/16 06:08:48;;;;;;;13.58;3.65;;;;;;;2.93;70.94;99735.27;1718770;82;21214;-70
2023/03/16 06:11:14;;;;;;;10.95;3.70;;;;;;;3.03;70.99;99740.70;1726021;82;21066;-71
2023/03/16 06:13:41;;;;;;;9.27;3.70;;;;;;;3.12;70.99;99737.97;1729011;82;20998;-69
2023/03/16 06:16:10;;;;;;;8.83;3.52;;;;;;;3.20;71.03;99741.27;1725383;81;21764;-72
2023/03/16 06:18:37;;;;;;;15.15;4.33;;;;;;;3.32;71.28;99743.63;1739329;82;21097;-74
2023/03/16 06:21:04;;;;;;;12.15;5.85;;;;;;;3.41;71.02;99746.92;1723471;82;21512;-71
2023/03/16 06:23:31;;;;;;;12.23;4.58;;;;;;;3.45;70.94;99740.85;1722809;82;21612;-70
2023/03/16 06:25:58;;;;;;;12.35;4.33;;;;;;;3.55;71.01;99742.36;1733875;82;20959;-62
2023/03/16 06:28:26;;;;;;;17.35;4.70;;;;;;;3.59;71.07;99749.19;1733147;81;21038;-71
2023/03/16 06:30:55;;;;;;;13.90;5.00;;;;;;;3.68;71.11;99745.14;1711816;82;21037;-72
2023/03/16 06:33:23;;;;;;;13.68;4.90;;;;;;;3.83;71.16;99752.18;1681721;84;20987;-71
2023/03/16 06:35:50;;;;;;;13.58;5.80;;;;;;;3.96;71.05;99747.19;1729458;81;21049;-70
2023/03/16 06:38:18;;;;;;;12.80;6.62;;;;;;;4.03;71.10;99751.34;1707485;82;21535;-66
2023/03/16 06:40:45;;;;;;;17.27;5.03;;;;;;;4.21;71.17;99747.09;1713479;82;21090;-71
2023/03/16 06:43:12;;;;;;;10.75;5.00;;;;;;;4.32;71.12;99749.91;1733362;81;21043;-71
2023/03/16 06:45:42;;;;;;;14.68;5.58;;;;;;;4.42;71.09;99753.53;1706992;83;20986;-69
2023/03/16 06:48:10;;;;;;;14.78;7.47;;;;;;;4.52;71.11;99751.61;1736159;81;20951;-67
2023/03/16 06:50:36;;;;;;;16.12;7.58;;;;;;;4.57;71.02;99761.42;1710122;83;21501;-71
2023/03/16 06:53:03;;;;;;;21.35;7.33;;;;;;;4.61;70.96;99760.45;1705979;83;21564;-65
2023/03/16 06:55:30;;;;;;;12.87;5.73;;;;;;;4.70;71.11;99764.14;1687713;83;20998;-72
2023/03/16 06:57:57;;;;;;;12.37;5.30;;;;;;;4.79;71.01;99767.38;1729662;80;21501;-74
2023/03/16 07:00:25;;;;;;;13.03;6.53;;;;;;;4.86;70.87;99778.01;1712937;82;21654;-75
2023/03/16 07:02:55;;;;;;;17.35;6.55;;;;;;;4.94;71.24;99767.04;1709819;82;21097;-70
2023/03/16 07:05:21;;;;;;;17.82;7.92;;;;;;;5.26;71.49;99770.58;1704861;83;20983;-65
2023/03/16 07:07:48;;;;;;;17.85;8.30;;;;;;;5.69;71.77;99772.09;1703936;83;21034;-70
2023/03/16 07:10:18;;;;;;;12.73;4.75;;;;;;;6.23;71.60;99772.78;1703863;82;21105;-66
2023/03/16 07:12:45;;;;;;;11.28;4.05;;;;;;;6.42;71.05;99770.06;1730619;81;21533;-66
2023/03/16 07:15:14;;;;;;;10.45;3.70;;;;;;;6.64;70.98;99769.43;1704247;83;21011;-70
2023/03/16 07:17:41;;;;;;;8.98;3.80;;;;;;;6.94;71.24;99773.64;1709495;83;21062;-68
2023/03/16 07:20:11;;;;;;;11.30;3.92;;;;;;;7.68;71.71;99780.78;1655149;85;21579;-70
2023/03/16 07:22:40;;;;;;;8.55;3.60;;;;;;;8.43;72.01;99763.78;1689690;83;20998;-70
2023/03/16 07:25:12;;;;;;;10.18;3.55;;;;;;;9.07;71.38;99769.08;1728146;82;21018;-74
2023/03/16 07:27:40;;;;;;;8.45;3.40;;;;;;;9.44;71.07;99774.11;1728349;82;21071;-66
2023/03/16 07:30:10;;;;;;;11.57;3.58;;;;;;;9.44;70.25;99776.72;1729912;82;21173;-74
2023/03/16 07:32:37;;;;;;;6.87;3.20;;;;;;;9.46;70.41;99780.08;1727335;82;21050;-66
2023/03/16 07:35:08;;;;;;;13.28;3.55;;;;;;;9.43;69.92;99782.81;1723209;82;21097;-63
2023/03/16 07:37:35;;;;;;;5.30;3.00;;;;;;;9.28;69.94;99786.07;1740865;80;21105;-65
2023/03/16 07:40:04;;;;;;;9.50;3.92;;;;;;;9.35;69.19;99784.89;1725092;81;21078;-65
2023/03/16 07:42:34;;;;;;;7.92;3.20;;;;;;;9.09;69.73;99788.11;1696439;82;21050;-65
2023/03/16 07:45:00;;;;;;;7.45;3.12;;;;;;;9.19;70.59;99785.53;1703447;82;20994;-63
2023/03/16 07:47:29;;;;;;;16.07;6.45;;;;;;;9.38;70.30;99784.77;1703415;84;21063;-65
2023/03/16 07:49:56;;;;;;;8.93;3.40;;;;;;;9.59;69.90;99785.17;1705276;82;21552;-65
2023/03/16 07:52:23;;;;;;;8.88;4.67;;;;;;;9.85;70.15;99787.13;1733012;81;20975;-63
2023/03/16 07:54:50;;;;;;;7.92;2.70;;;;;;;10.12;69.83;99786.85;1742043;80;21513;-64
2023/03/16 07:57:17;;;;;;;9.80;5.12;;;;;;;10.18;69.77;99786.11;1696572;82;21038;-65
2023/03/16 07:59:44;;;;;;;9.40;4.00;;;;;;;10.45;69.86;99791.05;1679676;84;21010;-66
2023/03/16 08:02:17;;;;;;;7.12;3.45;;;;;;;10.73;69.86;99789.31;1727931;82;21475;-66
2023/03/16 08:04:44;;;;;;;6.37;2.87;;;;;;;11.00;69.50;99795.44;1728946;82;20990;-65
2023/03/16 08:07:13;;;;;;;;;;;;;;;11.27;69.61;99796.73;1709067;83;20999;-66
2023/03/16 08:09:40;;;;;;;6.08;2.70;;;;;;;11.53;68.65;99801.13;1724449;82;20481;-66
2023/03/16 08:12:10;;;;;;;9.23;3.30;;;;;;;11.90;69.42;99804.05;1733282;80;21058;-66
2023/03/16 08:14:36;;;;;;;9.05;3.40;;;;;;;12.09;68.93;99802.64;1720894;82;20999;-67
2023/03/16 08:17:06;;;;;;;6.50;3.17;;;;;;;12.05;68.25;99803.75;1726283;82;21015;-66
2023/03/16 08:19:33;;;;;;;7.62;2.70;;;;;;;12.04;67.86;99807.27;1722730;82;21524;-66
2023/03/16 08:22:00;;;;;;;7.67;3.37;;;;;;;12.11;68.62;99816.51;1698480;83;21030;-67
2023/03/16 08:24:28;;;;;;;7.25;3.98;;;;;;;12.18;67.86;99812.63;1703749;83;21006;-66
2023/03/16 08:26:56;;;;;;;6.30;3.37;;;;;;;11.94;67.72;99821.77;1716330;82;21089;-66
2023/03/16 08:29:25;;;;;;;7.67;3.92;;;;;;;11.85;67.76;99827.86;1717041;82;21007;-66
2023/03/16 08:31:57;;;;;;;6.50;2.55;;;;;;;11.68;67.66;99830.45;1683170;82;21023;-67
2023/03/16 08:34:27;;;;;;;6.33;2.92;;;;;;;11.59;67.42;99830.89;1717225;83;22348;-67
2023/03/16 08:36:55;;;;;;;4.78;2.37;;;;;;;11.80;67.65;99827.20;1755371;80;21516;-66
2023/03/16 08:39:21;;;;;;;5.53;2.50;;;;;;;11.69;66.77;99837.83;1755443;80;21116;-67
2023/03/16 08:41:49;;;;;;;7.73;2.97;;;;;;;11.23;66.11;99838.76;1751504;80;21097;-64
2023/03/16 08:44:16;;;;;;;5.42;2.58;;;;;;;10.79;66.07;99846.48;1731762;81;21029;-68
2023/03/16 08:46:43;;;;;;;;;;;;;;;10.29;66.16;99845.69;1727285;81;21541;-66
2023/03/16 08:49:09;;;;;;;;;;;;;;;9.87;65.43;99858.33;1732643;82;20587;-67
2023/03/16 08:51:36;;;;;;;8.35;2.72;;;;;;;9.51;65.38;99857.63;1733764;81;20591;-67
2023/03/16 08:54:03;;;;;;;5.50;2.43;;;;;;;9.14;65.61;99861.71;1733942;81;21141;-67
2023/03/16 08:56:31;;;;;;;6.17;2.60;;;;;;;8.88;65.68;99868.39;1731919;81;21045;-67
2023/03/16 08:58:58;;;;;;;4.92;2.08;;;;;;;8.64;65.62;99870.98;1714676;82;21038;-67
2023/03/16 09:01:25;;;;;;;7.92;3.33;;;;;;;8.41;65.40;99876.20;1712951;82;20997;-63
2023/03/16 09:03:52;;;;;;;8.50;2.98;;;;;;;8.20;65.25;99875.16;1687755;84;20994;-63
2023/03/16 09:06:18;;;;;;;6.20;3.23;;;;;;;8.08;65.35;99881.64;1732898;81;21438;-64
2023/03/16 09:08:46;;;;;;;7.30;2.80;;;;;;;7.98;65.16;99885.44;1733287;81;21062;-64
2023/03/16 09:11:18;;;;;;;6.78;2.58;;;;;;;7.80;64.91;99882.56;1732942;81;21580;-64
2023/03/16 09:13:46;;;;;;;5.00;2.10;;;;;;;7.63;64.65;99884.88;1731935;81;21148;-64
2023/03/16 09:16:14;;;;;;;;;;;;;;;7.49;64.82;99892.27;1733636;81;20971;-63
2023/03/16 09:18:42;;;;;;;5.08;1.90;;;;;;;7.39;64.51;99888.67;1726707;81;20154;-64
2023/03/16 09:21:12;;;;;;;5.05;2.30;;;;;;;7.28;64.61;99886.86;1728480;81;21075;-64
2023/03/16 09:23:41;;;;;;;8.20;2.40;;;;;;;7.17;64.43;99891.54;1732659;81;20967;-64
2023/03/16 09:26:12;;;;;;;;;;;;;;;7.11;64.71;99894.30;1729753;81;20977;-64
2023/03/16 09:28:42;;;;;;;6.25;2.45;;;;;;;7.22;64.65;99902.61;1735966;81;20209;-64
2023/03/16 09:31:19;;;;;;;4.55;2.10;;;;;;;7.40;64.80;99907.25;1708981;82;21082;-64
2023/03/16 09:33:47;;;;;;;4.85;2.45;;;;;;;7.51;64.65;99916.47;1728973;81;21074;-64
2023/03/16 09:36:14;;;;;;;3.75;2.35;;;;;;;7.56;64.66;99917.14;1705601;83;21383;-63
2023/03/16 09:38:43;;;;;;;8.98;3.02;;;;;;;7.72;64.61;99920.11;1727396;81;20918;-63
2023/03/16 09:41:27;;;;;;;5.33;1.62;;;;;;;7.76;64.49;99917.37;1734544;81;20959;-64
2023/03/16 09:44:12;;;;;;;6.37;1.75;;;;;;;7.72;64.45;99923.55;1706617;83;21730;-63
2023/03/16 09:46:44;;;;;;;6.20;1.70;;;;;;;7.63;64.48;99929.05;1683232;83;21137;-63
2023/03/16 09:49:20;;;;;;;5.80;1.95;;;;;;;7.69;64.58;99936.66;1703111;83;21617;-63
2023/03/16 09:52:12;;;;;;;3.47;1.67;;;;;;;7.82;64.55;99935.36;1729834;81;21057;-64
2023/03/16 09:55:14;;;;;;;3.80;1.30;;;;;;;7.93;64.51;99939.37;1725209;81;21029;-64
2023/03/16 09:57:43;;;;;;;6.47;3.25;;;;;;;7.99;64.14;99941.77;1659873;84;21305;-64
2023/03/16 10:00:36;;;;;;;4.58;1.50;;;;;;;7.99;64.29;99945.66;1688617;83;20966;-64
2023/03/16 10:03:37;;;;;;;3.52;1.45;;;;;;;7.99;64.13;99944.37;1687155;84;21033;-64
2023/03/16 10:06:08;;;;;;;3.17;1.70;;;;;;;7.99;64.09;99952.17;1686601;83;21456;-64
2023/03/16 10:08:46;;;;;;;5.72;1.75;;;;;;;8.04;64.42;99955.47;1684875;83;21069;-64
2023/03/16 10:11:38;;;;;;;;;;;;;;;8.18;64.37;99963.66;1691254;82;21106;-64
2023/03/16 10:14:54;;;;;;;3.20;1.60;;;;;;;8.25;63.94;99962.53;1690921;83;20496;-64
2023/03/16 10:17:46;;;;;;;4.67;1.87;;;;;;;8.20;64.10;99962.30;1689455;83;20997;-64
2023/03/16 10:20:21;;;;;;;4.87;1.60;;;;;;;8.17;64.04;99966.30;1687719;83;21033;-64
2023/03/16 10:22:51;;;;;;;5.37;1.70;;;;;;;8.18;64.18;99975.37;1689543;84;21509;-64
2023/03/16 10:25:32;;;;;;;5.75;2.37;;;;;;;8.22;64.28;99974.34;1683096;84;21076;-64
2023/03/16 10:27:58;;;;;;;8.85;2.77;;;;;;;8.25;64.26;99972.94;1666478;83;21025;-64
2023/03/16 10:30:36;;;;;;;6.62;1.87;;;;;;;8.33;64.25;99974.45;1660586;84;20990;-63
2023/03/16 10:33:25;;;;;;;8.33;2.17;;;;;;;8.30;64.12;99986.65;1690077;83;20977;-64
2023/03/16 10:36:01;;;;;;;4.65;1.57;;;;;;;8.24;64.05;99986.86;1746104;80;20989;-62
2023/03/16 10:38:49;;;;;;;3.08;1.17;;;;;;;8.22;63.97;99993.86;1744173;80;21006;-62
2023/03/16 10:41:24;;;;;;;3.62;1.70;;;;;;;8.17;63.99;99998.36;1743715;80;21568;-62
2023/03/16 10:43:56;;;;;;;2.75;1.22;;;;;;;8.38;64.12;99992.91;1740426;80;20956;-62
2023/03/16 10:46:26;;;;;;;3.67;1.35;;;;;;;8.68;64.16;99991.45;1740745;80;20966;-63
2023/03/16 10:49:00;;;;;;;2.35;1.12;;;;;;;9.05;64.08;99989.70;1745117;80;21100;-62
2023/03/16 10:51:30;;;;;;;1.57;1.00;;;;;;;9.80;64.46;99989.88;1743406;80;21187;-61
2023/03/16 10:54:21;;;;;;;1.67;0.98;;;;;;;10.59;64.13;99996.69;1744046;80;21467;-62
2023/03/16 10:56:49;;;;;;;2.25;0.88;;;;;;;10.97;63.75;99993.22;1731663;80;21292;-64
2023/03/16 10:59:33;;;;;;;3.65;1.20;;;;;;;11.37;64.08;99996.66;1743839;80;21556;-63
2023/03/16 11:02:19;;;;;;;1.72;1.60;;;;;;;12.27;64.75;100000.66;1715159;83;20975;-63
2023/03/16 11:04:48;;;;;;;2.72;1.30;;;;;;;14.24;66.19;99984.86;1693642;83;21144;-62
2023/03/16 11:07:17;;;;;;;3.02;1.55;;;;;;;17.06;64.38;99987.95;1749047;80;21120;-62
2023/03/16 11:09:46;;;;;;;1.85;1.22;;;;;;;17.29;63.49;99990.76;1716262;82;21113;-62
2023/03/16 11:12:29;;;;;;;4.20;1.20;;;;;;;16.60;62.89;99992.38;1691147;83;20993;-62
2023/03/16 11:15:04;;;;;;;2.33;1.27;;;;;;;15.88;63.17;99999.34;1743134;80;21121;-61
2023/03/16 11:17:36;;;;;;;2.98;1.27;;;;;;;15.27;62.71;100004.52;1713266;82;21002;-61
2023/03/16 11:20:13;;;;;;;3.40;1.20;;;;;;;14.60;62.63;100010.78;1691677;83;21001;-61
2023/03/16 11:22:39;;;;;;;1.15;0.88;;;;;;;13.60;61.61;100019.05;1749854;80;21104;-61
2023/03/16 11:25:32;;;;;;;1.55;1.00;;;;;;;12.40;61.58;100031.46;1740977;80;21614;-60
2023/03/16 11:28:20;;;;;;;3.02;1.10;;;;;;;11.48;61.46;100035.83;1692446;84;21015;-62
2023/03/16 11:31:24;;;;;;;1.45;0.98;;;;;;;10.71;61.23;100041.39;1732310;81;20946;-63
2023/03/16 11:33:53;;;;;;;1.25;0.80;;;;;;;10.75;62.54;100038.18;1736534;81;21583;-64
2023/03/16 11:36:31;;;;;;;1.17;0.88;;;;;;;12.84;61.13;100036.23;1693671;83;21073;-63
2023/03/16 11:39:25;;;;;;;1.07;0.70;;;;;;;12.70;60.66;100050.87;1730261;81;22392;-63
2023/03/16 11:42:15;;;;;;;1.67;0.93;;;;;;;12.07;60.37;100043.97;1689771;83;22027;-63
2023/03/16 11:45:01;;;;;;;1.12;0.93;;;;;;;11.32;60.23;100049.62;1667080;84;21017;-64
2023/03/16 11:47:41;;;;;;;1.92;1.20;;;;;;;10.72;60.27;100061.82;1671413;84;21503;-64
2023/03/16 11:50:26;;;;;;;2.52;1.15;;;;;;;10.44;60.39;100058.20;1691160;84;21608;-64
2023/03/16 11:53:12;;;;;;;2.90;1.37;;;;;;;10.06;60.02;100070.56;1714683;81;20968;-62
2023/03/16 11:56:02;;;;;;;3.60;1.22;;;;;;;9.42;59.38;100048.27;1715953;81;22428;-63
2023/03/16 12:02:02;;;;;;;3.42;1.30;;;;;;;15.48;60.37;100056.27;1693071;83;21367;-64
2023/03/16 12:05:10;;;;;;;2.72;1.10;;;;;;;19.22;60.47;100044.66;1705691;82;21129;-63